sensor_id;sensor_type;location;lat;lon;timestamp;temperature;humidity
9544;DHT22;30418;51.45933468;7.33152330;2023-03-14T00:00:13;14.40;64.30
9544;DHT22;30418;51.45933468;7.33152330;2023-03-14T00:02:43;14.30;64.20
9544;DHT22;30418;51.45933468;7.33152330;2023-03-14T00:05:11;14.30;65.10
9544;DHT22;30418;51.45933468;7.33152330;2023-03-14T00:07:40;14.30;64.20
9544;DHT22;30418;51.45933468;7.33152330;2023-03-14T00:10:11;14.30;64.20
9544;DHT22;30418;51.45933468;7.33152330;2023-03-14T00:12:42;14.30;64.20
9544;DHT22;30418;51.45933468;7.33152330;2023-03-14T00:15:12;14.30;64.20
9544;DHT22;30418;51.45933468;7.33152330;2023-03-14T00:17:43;14.30;64.30
9544;DHT22;30418;51.45933468;7.33152330;2023-03-14T00:20:12;14.30;64.20
9544;DHT22;30418;51.45933468;7.33152330;2023-03-14T00:22:41;14.30;64.30
9544;DHT22;30418;51.45933468;7.33152330;2023-03-14T00:25:11;14.30;64.20
9544;DHT22;30418;51.45933468;7.33152330;2023-03-14T00:27:40;14.30;64.20
9544;DHT22;30418;51.45933468;7.33152330;2023-03-14T00:30:11;14.20;64.00
9544;DHT22;30418;51.45933468;7.33152330;2023-03-14T00:32:39;14.20;64.00
9544;DHT22;30418;51.45933468;7.33152330;2023-03-14T00:35:09;14.30;64.10
9544;DHT22;30418;51.45933468;7.33152330;2023-03-14T00:37:38;14.20;64.00
9544;DHT22;30418;51.45933468;7.33152330;2023-03-14T00:40:07;14.20;64.00
9544;DHT22;30418;51.45933468;7.33152330;2023-03-14T00:42:37;14.20;64.10
9544;DHT22;30418;51.45933468;7.33152330;2023-03-14T00:45:06;14.20;64.00
9544;DHT22;30418;51.45933468;7.33152330;2023-03-14T00:47:38;14.20;64.00
9544;DHT22;30418;51.45933468;7.33152330;2023-03-14T00:50:08;14.20;64.00
9544;DHT22;30418;51.45933468;7.33152330;2023-03-14T00:52:38;14.20;64.10
9544;DHT22;30418;51.45933468;7.33152330;2023-03-14T00:55:08;14.20;64.10
9544;DHT22;30418;51.45933468;7.33152330;2023-03-14T00:57:37;14.20;64.20
9544;DHT22;30418;51.45933468;7.33152330;2023-03-14T01:00:07;14.20;64.20
9544;DHT22;30418;51.45933468;7.33152330;2023-03-14T01:02:43;14.20;65.00
9544;DHT22;30418;51.45933468;7.33152330;2023-03-14T01:05:11;14.20;64.20
9544;DHT22;30418;51.45933468;7.33152330;2023-03-14T01:07:42;14.20;64.10
9544;DHT22;30418;51.45933468;7.33152330;2023-03-14T01:10:11;14.20;64.30
9544;DHT22;30418;51.45933468;7.33152330;2023-03-14T01:12:39;14.20;64.70
9544;DHT22;30418;51.45933468;7.33152330;2023-03-14T01:15:09;14.20;64.90
9544;DHT22;30418;51.45933468;7.33152330;2023-03-14T01:17:38;14.20;65.20
9544;DHT22;30418;51.45933468;7.33152330;2023-03-14T01:20:12;14.20;65.40
9544;DHT22;30418;51.45933468;7.33152330;2023-03-14T01:22:44;14.10;65.40
9544;DHT22;30418;51.45933468;7.33152330;2023-03-14T01:25:14;14.10;65.20
9544;DHT22;30418;51.45933468;7.33152330;2023-03-14T01:27:45;14.10;65.40
9544;DHT22;30418;51.45933468;7.33152330;2023-03-14T01:30:14;14.00;65.30
9544;DHT22;30418;51.45933468;7.33152330;2023-03-14T01:32:43;14.00;65.40
9544;DHT22;30418;51.45933468;7.33152330;2023-03-14T01:35:14;13.90;65.40
9544;DHT22;30418;51.45933468;7.33152330;2023-03-14T01:37:43;13.90;65.60
9544;DHT22;30418;51.45933468;7.33152330;2023-03-14T01:40:17;13.80;65.60
9544;DHT22;30418;51.45933468;7.33152330;2023-03-14T01:42:46;13.80;65.70
9544;DHT22;30418;51.45933468;7.33152330;2023-03-14T01:48:42;13.70;65.80
9544;DHT22;30418;51.45933468;7.33152330;2023-03-14T01:51:17;13.70;65.80
9544;DHT22;30418;51.45933468;7.33152330;2023-03-14T01:53:49;13.60;66.10
9544;DHT22;30418;51.45933468;7.33152330;2023-03-14T01:56:19;13.60;66.20
9544;DHT22;30418;51.45933468;7.33152330;2023-03-14T01:58:50;13.60;66.30
9544;DHT22;30418;51.45933468;7.33152330;2023-03-14T02:01:21;13.60;66.40
9544;DHT22;30418;51.45933468;7.33152330;2023-03-14T02:03:54;13.60;67.30
9544;DHT22;30418;51.45933468;7.33152330;2023-03-14T02:06:31;13.50;66.40
9544;DHT22;30418;51.45933468;7.33152330;2023-03-14T02:09:04;13.50;67.40
9544;DHT22;30418;51.45933468;7.33152330;2023-03-14T02:11:35;13.50;66.50
9544;DHT22;30418;51.45933468;7.33152330;2023-03-14T02:14:21;13.50;66.70
9544;DHT22;30418;51.45933468;7.33152330;2023-03-14T02:17:15;13.40;66.60
9544;DHT22;30418;51.45933468;7.33152330;2023-03-14T02:20:14;13.40;66.60
9544;DHT22;30418;51.45933468;7.33152330;2023-03-14T02:22:57;13.40;66.80
9544;DHT22;30418;51.45933468;7.33152330;2023-03-14T02:25:37;13.40;66.70
9544;DHT22;30418;51.45933468;7.33152330;2023-03-14T02:28:09;13.40;66.90
9544;DHT22;30418;51.45933468;7.33152330;2023-03-14T02:30:39;13.30;66.70
9544;DHT22;30418;51.45933468;7.33152330;2023-03-14T02:33:10;13.40;66.90
9544;DHT22;30418;51.45933468;7.33152330;2023-03-14T02:35:46;13.40;67.00
9544;DHT22;30418;51.45933468;7.33152330;2023-03-14T02:38:22;13.30;67.00
9544;DHT22;30418;51.45933468;7.33152330;2023-03-14T02:40:53;13.40;67.10
9544;DHT22;30418;51.45933468;7.33152330;2023-03-14T02:43:23;13.30;67.00
9544;DHT22;30418;51.45933468;7.33152330;2023-03-14T02:45:59;13.30;67.10
9544;DHT22;30418;51.45933468;7.33152330;2023-03-14T02:48:33;13.30;67.20
9544;DHT22;30418;51.45933468;7.33152330;2023-03-14T02:51:03;13.30;67.20
9544;DHT22;30418;51.45933468;7.33152330;2023-03-14T02:53:34;13.30;67.20
9544;DHT22;30418;51.45933468;7.33152330;2023-03-14T02:56:10;13.30;67.30
9544;DHT22;30418;51.45933468;7.33152330;2023-03-14T02:58:41;13.30;67.30
9544;DHT22;30418;51.45933468;7.33152330;2023-03-14T03:01:36;13.30;67.40
9544;DHT22;30418;51.45933468;7.33152330;2023-03-14T03:04:05;13.30;67.40
9544;DHT22;30418;51.45933468;7.33152330;2023-03-14T03:06:33;13.30;67.40
9544;DHT22;30418;51.45933468;7.33152330;2023-03-14T03:09:02;13.30;67.40
9544;DHT22;30418;51.45933468;7.33152330;2023-03-14T03:11:31;13.30;68.30
9544;DHT22;30418;51.45933468;7.33152330;2023-03-14T03:14:01;13.30;67.40
9544;DHT22;30418;51.45933468;7.33152330;2023-03-14T03:16:30;13.30;67.40
9544;DHT22;30418;51.45933468;7.33152330;2023-03-14T03:18:59;13.30;67.40
9544;DHT22;30418;51.45933468;7.33152330;2023-03-14T03:21:28;13.30;67.40
9544;DHT22;30418;51.45933468;7.33152330;2023-03-14T03:23:56;13.30;67.40
9544;DHT22;30418;51.45933468;7.33152330;2023-03-14T03:26:25;13.30;67.40
9544;DHT22;30418;51.45933468;7.33152330;2023-03-14T03:28:53;13.30;67.40
9544;DHT22;30418;51.45933468;7.33152330;2023-03-14T03:31:24;13.30;67.40
9544;DHT22;30418;51.45933468;7.33152330;2023-03-14T03:33:53;13.30;67.40
9544;DHT22;30418;51.45933468;7.33152330;2023-03-14T03:36:22;13.30;67.40
9544;DHT22;30418;51.45933468;7.33152330;2023-03-14T03:38:52;13.30;67.40
9544;DHT22;30418;51.45933468;7.33152330;2023-03-14T03:41:20;13.30;67.30
9544;DHT22;30418;51.45933468;7.33152330;2023-03-14T03:43:50;13.30;67.30
9544;DHT22;30418;51.45933468;7.33152330;2023-03-14T03:46:19;13.20;67.20
9544;DHT22;30418;51.45933468;7.33152330;2023-03-14T03:48:54;13.30;67.30
9544;DHT22;30418;51.45933468;7.33152330;2023-03-14T03:51:23;13.20;67.30
9544;DHT22;30418;51.45933468;7.33152330;2023-03-14T03:53:53;13.20;67.30
9544;DHT22;30418;51.45933468;7.33152330;2023-03-14T03:56:27;13.20;67.20
9544;DHT22;30418;51.45933468;7.33152330;2023-03-14T03:58:56;13.20;67.30
9544;DHT22;30418;51.45933468;7.33152330;2023-03-14T04:01:24;13.20;67.30
9544;DHT22;30418;51.45933468;7.33152330;2023-03-14T04:03:57;13.20;67.50
9544;DHT22;30418;51.45933468;7.33152330;2023-03-14T04:06:27;13.20;67.60
9544;DHT22;30418;51.45933468;7.33152330;2023-03-14T04:08:58;13.20;67.60
9544;DHT22;30418;51.45933468;7.33152330;2023-03-14T04:11:48;13.20;67.60
9544;DHT22;30418;51.45933468;7.33152330;2023-03-14T04:14:19;13.20;67.70
9544;DHT22;30418;51.45933468;7.33152330;2023-03-14T04:16:55;13.20;67.70
9544;DHT22;30418;51.45933468;7.33152330;2023-03-14T04:19:25;13.20;67.80
9544;DHT22;30418;51.45933468;7.33152330;2023-03-14T04:21:56;13.20;67.80
9544;DHT22;30418;51.45933468;7.33152330;2023-03-14T04:24:30;13.10;67.70
9544;DHT22;30418;51.45933468;7.33152330;2023-03-14T04:26:58;13.10;67.60
9544;DHT22;30418;51.45933468;7.33152330;2023-03-14T04:29:27;13.10;67.50
9544;DHT22;30418;51.45933468;7.33152330;2023-03-14T04:31:55;13.10;67.50
9544;DHT22;30418;51.45933468;7.33152330;2023-03-14T04:34:25;13.10;67.50
9544;DHT22;30418;51.45933468;7.33152330;2023-03-14T04:36:56;13.10;67.50
9544;DHT22;30418;51.45933468;7.33152330;2023-03-14T04:39:38;13.00;67.50
9544;DHT22;30418;51.45933468;7.33152330;2023-03-14T04:42:23;13.00;67.60
9544;DHT22;30418;51.45933468;7.33152330;2023-03-14T04:44:52;13.00;67.70
9544;DHT22;30418;51.45933468;7.33152330;2023-03-14T04:47:24;13.00;67.70
9544;DHT22;30418;51.45933468;7.33152330;2023-03-14T04:49:55;13.00;67.80
9544;DHT22;30418;51.45933468;7.33152330;2023-03-14T04:52:24;13.00;67.90
9544;DHT22;30418;51.45933468;7.33152330;2023-03-14T04:54:53;13.00;68.00
9544;DHT22;30418;51.45933468;7.33152330;2023-03-14T04:57:24;12.90;68.00
9544;DHT22;30418;51.45933468;7.33152330;2023-03-14T04:59:53;13.00;68.10
9544;DHT22;30418;51.45933468;7.33152330;2023-03-14T05:02:46;13.00;68.20
9544;DHT22;30418;51.45933468;7.33152330;2023-03-14T05:05:22;12.90;68.10
9544;DHT22;30418;51.45933468;7.33152330;2023-03-14T05:08:11;12.90;68.10
9544;DHT22;30418;51.45933468;7.33152330;2023-03-14T05:10:57;12.90;68.10
9544;DHT22;30418;51.45933468;7.33152330;2023-03-14T05:13:46;12.90;68.10
9544;DHT22;30418;51.45933468;7.33152330;2023-03-14T05:16:27;12.80;68.10
9544;DHT22;30418;51.45933468;7.33152330;2023-03-14T05:19:02;12.80;67.90
9544;DHT22;30418;51.45933468;7.33152330;2023-03-14T05:21:57;12.70;67.80
9544;DHT22;30418;51.45933468;7.33152330;2023-03-14T05:24:44;12.70;67.80
9544;DHT22;30418;51.45933468;7.33152330;2023-03-14T05:27:32;12.60;67.90
9544;DHT22;30418;51.45933468;7.33152330;2023-03-14T05:30:15;12.60;68.10
9544;DHT22;30418;51.45933468;7.33152330;2023-03-14T05:32:59;12.60;68.30
9544;DHT22;30418;51.45933468;7.33152330;2023-03-14T05:35:43;12.50;68.20
9544;DHT22;30418;51.45933468;7.33152330;2023-03-14T05:38:37;12.50;68.30
9544;DHT22;30418;51.45933468;7.33152330;2023-03-14T05:41:25;12.50;68.50
9544;DHT22;30418;51.45933468;7.33152330;2023-03-14T05:44:10;12.40;68.40
9544;DHT22;30418;51.45933468;7.33152330;2023-03-14T05:46:57;12.40;68.50
9544;DHT22;30418;51.45933468;7.33152330;2023-03-14T05:49:44;12.40;68.50
9544;DHT22;30418;51.45933468;7.33152330;2023-03-14T05:52:30;12.40;68.60
9544;DHT22;30418;51.45933468;7.33152330;2023-03-14T05:55:27;12.40;68.70
9544;DHT22;30418;51.45933468;7.33152330;2023-03-14T05:58:10;12.50;69.00
9544;DHT22;30418;51.45933468;7.33152330;2023-03-14T06:01:11;12.50;69.10
9544;DHT22;30418;51.45933468;7.33152330;2023-03-14T06:04:03;12.50;69.10
9544;DHT22;30418;51.45933468;7.33152330;2023-03-14T06:06:32;12.50;69.20
9544;DHT22;30418;51.45933468;7.33152330;2023-03-14T06:09:01;12.50;69.20
9544;DHT22;30418;51.45933468;7.33152330;2023-03-14T06:11:34;12.50;69.30
9544;DHT22;30418;51.45933468;7.33152330;2023-03-14T06:14:04;12.60;69.50
9544;DHT22;30418;51.45933468;7.33152330;2023-03-14T06:16:33;12.60;69.50
9544;DHT22;30418;51.45933468;7.33152330;2023-03-14T06:19:03;12.50;69.50
9544;DHT22;30418;51.45933468;7.33152330;2023-03-14T06:21:32;12.60;69.70
9544;DHT22;30418;51.45933468;7.33152330;2023-03-14T06:24:01;12.60;69.70
9544;DHT22;30418;51.45933468;7.33152330;2023-03-14T06:26:35;12.60;69.80
9544;DHT22;30418;51.45933468;7.33152330;2023-03-14T06:29:04;12.60;69.80
9544;DHT22;30418;51.45933468;7.33152330;2023-03-14T06:31:34;12.60;69.80
9544;DHT22;30418;51.45933468;7.33152330;2023-03-14T06:34:05;12.70;70.00
9544;DHT22;30418;51.45933468;7.33152330;2023-03-14T06:36:34;12.70;70.00
9544;DHT22;30418;51.45933468;7.33152330;2023-03-14T06:39:03;12.70;70.00
9544;DHT22;30418;51.45933468;7.33152330;2023-03-14T06:41:36;12.70;70.00
9544;DHT22;30418;51.45933468;7.33152330;2023-03-14T06:44:04;12.70;70.00
9544;DHT22;30418;51.45933468;7.33152330;2023-03-14T06:46:33;12.70;70.00
9544;DHT22;30418;51.45933468;7.33152330;2023-03-14T06:49:02;12.80;70.10
9544;DHT22;30418;51.45933468;7.33152330;2023-03-14T06:51:32;12.70;70.00
9544;DHT22;30418;51.45933468;7.33152330;2023-03-14T06:54:03;12.80;70.10
9544;DHT22;30418;51.45933468;7.33152330;2023-03-14T06:56:32;12.80;70.20
9544;DHT22;30418;51.45933468;7.33152330;2023-03-14T06:59:02;12.80;70.20
9544;DHT22;30418;51.45933468;7.33152330;2023-03-14T07:01:32;12.80;70.30
9544;DHT22;30418;51.45933468;7.33152330;2023-03-14T07:04:05;12.80;70.10
9544;DHT22;30418;51.45933468;7.33152330;2023-03-14T07:06:36;12.80;70.10
9544;DHT22;30418;51.45933468;7.33152330;2023-03-14T07:09:06;12.80;70.20
9544;DHT22;30418;51.45933468;7.33152330;2023-03-14T07:11:41;12.80;70.20
9544;DHT22;30418;51.45933468;7.33152330;2023-03-14T07:14:11;12.80;70.40
9544;DHT22;30418;51.45933468;7.33152330;2023-03-14T07:16:40;12.90;70.50
9544;DHT22;30418;51.45933468;7.33152330;2023-03-14T07:19:08;12.90;70.50
9544;DHT22;30418;51.45933468;7.33152330;2023-03-14T07:21:37;12.90;70.50
9544;DHT22;30418;51.45933468;7.33152330;2023-03-14T07:24:10;12.90;70.50
9544;DHT22;30418;51.45933468;7.33152330;2023-03-14T07:26:39;12.90;70.50
9544;DHT22;30418;51.45933468;7.33152330;2023-03-14T07:29:08;12.90;70.60
9544;DHT22;30418;51.45933468;7.33152330;2023-03-14T07:31:39;12.90;70.70
9544;DHT22;30418;51.45933468;7.33152330;2023-03-14T07:34:08;12.90;70.90
9544;DHT22;30418;51.45933468;7.33152330;2023-03-14T07:36:41;13.00;71.00
9544;DHT22;30418;51.45933468;7.33152330;2023-03-14T07:39:10;13.00;71.20
9544;DHT22;30418;51.45933468;7.33152330;2023-03-14T07:41:59;13.00;71.10
9544;DHT22;30418;51.45933468;7.33152330;2023-03-14T07:44:47;13.00;71.00
9544;DHT22;30418;51.45933468;7.33152330;2023-03-14T07:47:17;13.00;71.00
9544;DHT22;30418;51.45933468;7.33152330;2023-03-14T07:49:46;13.00;71.00
9544;DHT22;30418;51.45933468;7.33152330;2023-03-14T07:52:15;13.00;71.00
9544;DHT22;30418;51.45933468;7.33152330;2023-03-14T07:54:43;13.00;71.00
9544;DHT22;30418;51.45933468;7.33152330;2023-03-14T07:57:12;13.10;71.20
9544;DHT22;30418;51.45933468;7.33152330;2023-03-14T07:59:41;13.10;71.20
9544;DHT22;30418;51.45933468;7.33152330;2023-03-14T08:02:10;13.10;71.20
9544;DHT22;30418;51.45933468;7.33152330;2023-03-14T08:04:41;13.10;71.40
9544;DHT22;30418;51.45933468;7.33152330;2023-03-14T08:07:10;13.10;71.90
9544;DHT22;30418;51.45933468;7.33152330;2023-03-14T08:09:38;13.10;71.30
9544;DHT22;30418;51.45933468;7.33152330;2023-03-14T08:12:08;13.10;71.30
9544;DHT22;30418;51.45933468;7.33152330;2023-03-14T08:14:36;13.20;71.50
9544;DHT22;30418;51.45933468;7.33152330;2023-03-14T08:17:05;13.10;71.40
9544;DHT22;30418;51.45933468;7.33152330;2023-03-14T08:19:35;13.20;71.50
9544;DHT22;30418;51.45933468;7.33152330;2023-03-14T08:22:05;13.20;71.50
9544;DHT22;30418;51.45933468;7.33152330;2023-03-14T08:24:33;13.20;71.50
9544;DHT22;30418;51.45933468;7.33152330;2023-03-14T08:27:02;13.20;71.50
9544;DHT22;30418;51.45933468;7.33152330;2023-03-14T08:29:31;13.20;71.50
9544;DHT22;30418;51.45933468;7.33152330;2023-03-14T08:31:59;13.20;71.60
9544;DHT22;30418;51.45933468;7.33152330;2023-03-14T08:34:28;13.20;71.60
9544;DHT22;30418;51.45933468;7.33152330;2023-03-14T08:36:57;13.20;71.60
9544;DHT22;30418;51.45933468;7.33152330;2023-03-14T08:39:27;13.20;71.70
9544;DHT22;30418;51.45933468;7.33152330;2023-03-14T08:41:55;13.20;71.80
9544;DHT22;30418;51.45933468;7.33152330;2023-03-14T08:44:24;13.30;71.90
9544;DHT22;30418;51.45933468;7.33152330;2023-03-14T08:46:52;13.30;71.90
9544;DHT22;30418;51.45933468;7.33152330;2023-03-14T08:49:21;13.30;71.90
9544;DHT22;30418;51.45933468;7.33152330;2023-03-14T08:51:49;13.30;72.00
9544;DHT22;30418;51.45933468;7.33152330;2023-03-14T08:54:17;13.30;72.00
9544;DHT22;30418;51.45933468;7.33152330;2023-03-14T08:56:47;13.30;72.10
9544;DHT22;30418;51.45933468;7.33152330;2023-03-14T08:59:16;13.40;72.30
9544;DHT22;30418;51.45933468;7.33152330;2023-03-14T09:01:45;13.30;72.20
9544;DHT22;30418;51.45933468;7.33152330;2023-03-14T09:04:13;13.40;72.30
9544;DHT22;30418;51.45933468;7.33152330;2023-03-14T09:06:42;13.40;72.30
9544;DHT22;30418;51.45933468;7.33152330;2023-03-14T09:09:11;13.40;72.20
9544;DHT22;30418;51.45933468;7.33152330;2023-03-14T09:11:40;13.40;72.20
9544;DHT22;30418;51.45933468;7.33152330;2023-03-14T09:14:10;13.40;72.20
9544;DHT22;30418;51.45933468;7.33152330;2023-03-14T09:16:38;13.40;72.40
9544;DHT22;30418;51.45933468;7.33152330;2023-03-14T09:19:08;13.40;72.30
9544;DHT22;30418;51.45933468;7.33152330;2023-03-14T09:21:36;13.40;72.30
9544;DHT22;30418;51.45933468;7.33152330;2023-03-14T09:24:06;13.40;72.40
9544;DHT22;30418;51.45933468;7.33152330;2023-03-14T09:26:35;13.40;73.20
9544;DHT22;30418;51.45933468;7.33152330;2023-03-14T09:29:05;13.40;72.30
9544;DHT22;30418;51.45933468;7.33152330;2023-03-14T09:31:35;13.40;72.30
9544;DHT22;30418;51.45933468;7.33152330;2023-03-14T09:34:03;13.40;72.10
9544;DHT22;30418;51.45933468;7.33152330;2023-03-14T09:36:32;13.30;71.80
9544;DHT22;30418;51.45933468;7.33152330;2023-03-14T09:39:00;13.30;71.60
9544;DHT22;30418;51.45933468;7.33152330;2023-03-14T09:41:32;13.30;71.60
9544;DHT22;30418;51.45933468;7.33152330;2023-03-14T09:44:05;13.20;71.50
9544;DHT22;30418;51.45933468;7.33152330;2023-03-14T09:46:38;13.20;71.40
9544;DHT22;30418;51.45933468;7.33152330;2023-03-14T09:49:13;13.20;71.50
9544;DHT22;30418;51.45933468;7.33152330;2023-03-14T09:51:46;13.10;71.30
9544;DHT22;30418;51.45933468;7.33152330;2023-03-14T09:54:28;13.10;70.60
9544;DHT22;30418;51.45933468;7.33152330;2023-03-14T09:56:59;13.00;70.20
9544;DHT22;30418;51.45933468;7.33152330;2023-03-14T09:59:29;12.90;69.60
9544;DHT22;30418;51.45933468;7.33152330;2023-03-14T10:02:01;12.70;69.50
9544;DHT22;30418;51.45933468;7.33152330;2023-03-14T10:04:30;12.60;69.60
9544;DHT22;30418;51.45933468;7.33152330;2023-03-14T10:07:00;12.60;69.50
9544;DHT22;30418;51.45933468;7.33152330;2023-03-14T10:09:30;12.50;69.50
9544;DHT22;30418;51.45933468;7.33152330;2023-03-14T10:11:59;12.40;69.70
9544;DHT22;30418;51.45933468;7.33152330;2023-03-14T10:14:33;12.30;69.70
9544;DHT22;30418;51.45933468;7.33152330;2023-03-14T10:17:10;12.30;69.90
9544;DHT22;30418;51.45933468;7.33152330;2023-03-14T10:19:51;12.20;69.90
9544;DHT22;30418;51.45933468;7.33152330;2023-03-14T10:22:21;12.20;70.00
9544;DHT22;30418;51.45933468;7.33152330;2023-03-14T10:24:54;12.10;70.00
9544;DHT22;30418;51.45933468;7.33152330;2023-03-14T10:27:29;12.00;70.10
9544;DHT22;30418;51.45933468;7.33152330;2023-03-14T10:30:00;12.00;70.20
9544;DHT22;30418;51.45933468;7.33152330;2023-03-14T10:32:34;12.00;70.20
9544;DHT22;30418;51.45933468;7.33152330;2023-03-14T10:35:20;12.00;70.20
9544;DHT22;30418;51.45933468;7.33152330;2023-03-14T10:37:55;11.90;70.20
9544;DHT22;30418;51.45933468;7.33152330;2023-03-14T10:40:28;11.90;70.10
9544;DHT22;30418;51.45933468;7.33152330;2023-03-14T10:42:59;11.80;70.00
9544;DHT22;30418;51.45933468;7.33152330;2023-03-14T10:45:32;11.80;70.00
9544;DHT22;30418;51.45933468;7.33152330;2023-03-14T10:48:19;11.80;70.20
9544;DHT22;30418;51.45933468;7.33152330;2023-03-14T10:50:54;11.70;69.90
9544;DHT22;30418;51.45933468;7.33152330;2023-03-14T10:53:25;11.60;69.50
9544;DHT22;30418;51.45933468;7.33152330;2023-03-14T10:55:55;11.60;69.50
9544;DHT22;30418;51.45933468;7.33152330;2023-03-14T10:58:26;11.50;69.40
9544;DHT22;30418;51.45933468;7.33152330;2023-03-14T11:01:06;11.40;69.50
9544;DHT22;30418;51.45933468;7.33152330;2023-03-14T11:03:45;11.40;69.60
9544;DHT22;30418;51.45933468;7.33152330;2023-03-14T11:06:21;11.30;69.60
9544;DHT22;30418;51.45933468;7.33152330;2023-03-14T11:08:57;11.30;69.80
9544;DHT22;30418;51.45933468;7.33152330;2023-03-14T11:11:32;11.20;69.70
9544;DHT22;30418;51.45933468;7.33152330;2023-03-14T11:14:11;11.20;69.20
9544;DHT22;30418;51.45933468;7.33152330;2023-03-14T11:16:53;11.10;68.50
9544;DHT22;30418;51.45933468;7.33152330;2023-03-14T11:19:42;11.00;68.20
9544;DHT22;30418;51.45933468;7.33152330;2023-03-14T11:22:21;11.00;67.90
9544;DHT22;30418;51.45933468;7.33152330;2023-03-14T11:25:06;10.90;68.10
9544;DHT22;30418;51.45933468;7.33152330;2023-03-14T11:27:42;10.80;68.30
9544;DHT22;30418;51.45933468;7.33152330;2023-03-14T11:30:18;10.80;68.70
9544;DHT22;30418;51.45933468;7.33152330;2023-03-14T11:32:54;10.80;68.90
9544;DHT22;30418;51.45933468;7.33152330;2023-03-14T11:35:30;10.80;68.60
9544;DHT22;30418;51.45933468;7.33152330;2023-03-14T11:38:12;10.70;68.10
9544;DHT22;30418;51.45933468;7.33152330;2023-03-14T11:40:44;10.70;68.00
9544;DHT22;30418;51.45933468;7.33152330;2023-03-14T11:43:18;10.70;68.10
9544;DHT22;30418;51.45933468;7.33152330;2023-03-14T11:45:50;10.70;68.00
9544;DHT22;30418;51.45933468;7.33152330;2023-03-14T11:48:31;10.60;67.70
9544;DHT22;30418;51.45933468;7.33152330;2023-03-14T11:51:12;10.70;68.10
9544;DHT22;30418;51.45933468;7.33152330;2023-03-14T11:53:50;10.60;67.70
9544;DHT22;30418;51.45933468;7.33152330;2023-03-14T11:56:29;10.60;67.10
9544;DHT22;30418;51.45933468;7.33152330;2023-03-14T11:59:04;10.60;66.60
9544;DHT22;30418;51.45933468;7.33152330;2023-03-14T12:01:49;10.60;66.00
9544;DHT22;30418;51.45933468;7.33152330;2023-03-14T12:04:41;10.50;66.00
9544;DHT22;30418;51.45933468;7.33152330;2023-03-14T12:07:19;10.40;65.90
9544;DHT22;30418;51.45933468;7.33152330;2023-03-14T12:09:51;10.40;65.90
9544;DHT22;30418;51.45933468;7.33152330;2023-03-14T12:12:23;10.30;65.60
9544;DHT22;30418;51.45933468;7.33152330;2023-03-14T12:14:55;10.30;65.60
9544;DHT22;30418;51.45933468;7.33152330;2023-03-14T12:17:33;10.20;65.60
9544;DHT22;30418;51.45933468;7.33152330;2023-03-14T12:20:11;10.20;65.80
9544;DHT22;30418;51.45933468;7.33152330;2023-03-14T12:22:47;10.20;65.70
9544;DHT22;30418;51.45933468;7.33152330;2023-03-14T12:25:19;10.10;65.70
9544;DHT22;30418;51.45933468;7.33152330;2023-03-14T12:28:03;10.10;66.00
9544;DHT22;30418;51.45933468;7.33152330;2023-03-14T12:30:36;10.10;65.20
9544;DHT22;30418;51.45933468;7.33152330;2023-03-14T12:36:01;10.00;65.50
9544;DHT22;30418;51.45933468;7.33152330;2023-03-14T12:38:56;10.00;65.90
9544;DHT22;30418;51.45933468;7.33152330;2023-03-14T12:41:36;10.00;66.50
9544;DHT22;30418;51.45933468;7.33152330;2023-03-14T12:44:39;10.00;66.60
9544;DHT22;30418;51.45933468;7.33152330;2023-03-14T12:50:43;10.10;67.00
9544;DHT22;30418;51.45933468;7.33152330;2023-03-14T12:56:38;10.20;67.30
9544;DHT22;30418;51.45933468;7.33152330;2023-03-14T12:59:28;10.20;67.00
9544;DHT22;30418;51.45933468;7.33152330;2023-03-14T13:02:01;10.30;66.80
9544;DHT22;30418;51.45933468;7.33152330;2023-03-14T13:04:45;10.30;66.40
9544;DHT22;30418;51.45933468;7.33152330;2023-03-14T13:07:31;10.30;66.40
9544;DHT22;30418;51.45933468;7.33152330;2023-03-14T13:10:18;10.40;66.40
9544;DHT22;30418;51.45933468;7.33152330;2023-03-14T13:12:51;10.40;66.40
9544;DHT22;30418;51.45933468;7.33152330;2023-03-14T13:15:23;10.40;66.10
9544;DHT22;30418;51.45933468;7.33152330;2023-03-14T13:17:56;10.30;65.70
9544;DHT22;30418;51.45933468;7.33152330;2023-03-14T13:20:31;10.30;65.50
9544;DHT22;30418;51.45933468;7.33152330;2023-03-14T13:23:01;10.20;65.50
9544;DHT22;30418;51.45933468;7.33152330;2023-03-14T13:25:34;10.10;65.50
9544;DHT22;30418;51.45933468;7.33152330;2023-03-14T13:28:04;10.10;65.50
9544;DHT22;30418;51.45933468;7.33152330;2023-03-14T13:30:40;10.00;65.40
9544;DHT22;30418;51.45933468;7.33152330;2023-03-14T13:33:15;10.00;65.50
9544;DHT22;30418;51.45933468;7.33152330;2023-03-14T13:35:46;9.90;66.90
9544;DHT22;30418;51.45933468;7.33152330;2023-03-14T13:38:18;9.90;67.20
9544;DHT22;30418;51.45933468;7.33152330;2023-03-14T13:40:50;9.80;67.40
9544;DHT22;30418;51.45933468;7.33152330;2023-03-14T13:43:23;9.80;67.40
9544;DHT22;30418;51.45933468;7.33152330;2023-03-14T13:45:56;9.80;67.50
9544;DHT22;30418;51.45933468;7.33152330;2023-03-14T13:48:32;9.80;67.30
9544;DHT22;30418;51.45933468;7.33152330;2023-03-14T13:51:04;9.80;67.30
9544;DHT22;30418;51.45933468;7.33152330;2023-03-14T13:53:43;9.80;67.10
9544;DHT22;30418;51.45933468;7.33152330;2023-03-14T13:56:13;9.70;67.20
9544;DHT22;30418;51.45933468;7.33152330;2023-03-14T13:58:42;9.70;67.30
9544;DHT22;30418;51.45933468;7.33152330;2023-03-14T14:01:14;9.70;67.40
9544;DHT22;30418;51.45933468;7.33152330;2023-03-14T14:03:46;9.70;67.80
9544;DHT22;30418;51.45933468;7.33152330;2023-03-14T14:06:30;9.70;68.00
9544;DHT22;30418;51.45933468;7.33152330;2023-03-14T14:09:01;9.70;68.20
9544;DHT22;30418;51.45933468;7.33152330;2023-03-14T14:11:38;9.70;68.20
9544;DHT22;30418;51.45933468;7.33152330;2023-03-14T14:14:21;9.80;68.50
9544;DHT22;30418;51.45933468;7.33152330;2023-03-14T14:16:52;9.80;68.80
9544;DHT22;30418;51.45933468;7.33152330;2023-03-14T14:19:22;9.90;68.80
9544;DHT22;30418;51.45933468;7.33152330;2023-03-14T14:21:52;9.90;68.70